sensor_id;sensor_type;location;lat;lon;timestamp;pressure;altitude;pressure_sealevel;temperature;humidity
23339;BME280;11841;49.368;20.962;2023-01-29T00:00:10;96337.38;;;-1.31;92.64
23339;BME280;11841;49.368;20.962;2023-01-29T00:02:36;96338.63;;;-1.26;92.39
23339;BME280;11841;49.368;20.962;2023-01-29T00:05:03;96336.72;;;-1.24;91.78
23339;BME280;11841;49.368;20.962;2023-01-29T00:07:51;96347.56;;;-1.18;91.76
23339;BME280;11841;49.368;20.962;2023-01-29T00:10:17;96354.88;;;-1.33;89.87
23339;BME280;11841;49.368;20.962;2023-01-29T00:12:44;96346.91;;;-1.41;89.63
23339;BME280;11841;49.368;20.962;2023-01-29T00:15:10;96350.66;;;-1.34;90.37
23339;BME280;11841;49.368;20.962;2023-01-29T00:17:37;96344.63;;;-1.35;90.25
23339;BME280;11841;49.368;20.962;2023-01-29T00:20:04;96336.16;;;-1.27;90.67
23339;BME280;11841;49.368;20.962;2023-01-29T00:22:30;96350.38;;;-1.31;90.22
23339;BME280;11841;49.368;20.962;2023-01-29T00:24:57;96349.69;;;-1.33;89.77
23339;BME280;11841;49.368;20.962;2023-01-29T00:27:23;96351.84;;;-1.38;90.42
23339;BME280;11841;49.368;20.962;2023-01-29T00:29:50;96342.84;;;-1.34;90.10
23339;BME280;11841;49.368;20.962;2023-01-29T00:32:34;96345.81;;;-1.39;89.82
23339;BME280;11841;49.368;20.962;2023-01-29T00:35:01;96341.84;;;-1.43;89.45
23339;BME280;11841;49.368;20.962;2023-01-29T00:37:28;96343.22;;;-1.39;90.58
23339;BME280;11841;49.368;20.962;2023-01-29T00:39:55;96344.75;;;-1.36;89.89
23339;BME280;11841;49.368;20.962;2023-01-29T00:42:21;96348.72;;;-1.32;90.46
23339;BME280;11841;49.368;20.962;2023-01-29T00:45:07;96354.06;;;-1.34;90.09
23339;BME280;11841;49.368;20.962;2023-01-29T00:47:33;96352.28;;;-1.33;90.18
23339;BME280;11841;49.368;20.962;2023-01-29T00:50:00;96351.31;;;-1.32;89.50
23339;BME280;11841;49.368;20.962;2023-01-29T00:52:27;96357.97;;;-1.39;90.50
23339;BME280;11841;49.368;20.962;2023-01-29T00:54:55;96364.41;;;-1.43;90.46
23339;BME280;11841;49.368;20.962;2023-01-29T00:57:23;96353.88;;;-1.42;90.02
23339;BME280;11841;49.368;20.962;2023-01-29T00:59:49;96358.19;;;-1.52;89.97
23339;BME280;11841;49.368;20.962;2023-01-29T01:02:16;96352.59;;;-1.47;89.92
23339;BME280;11841;49.368;20.962;2023-01-29T01:05:01;96352.88;;;-1.50;90.26
23339;BME280;11841;49.368;20.962;2023-01-29T01:07:28;96348.06;;;-1.55;90.03
23339;BME280;11841;49.368;20.962;2023-01-29T01:09:55;96335.72;;;-1.53;90.01
23339;BME280;11841;49.368;20.962;2023-01-29T01:12:41;96348.72;;;-1.53;90.01
23339;BME280;11841;49.368;20.962;2023-01-29T01:15:07;96340.41;;;-1.56;90.39
23339;BME280;11841;49.368;20.962;2023-01-29T01:17:34;96351.22;;;-1.51;90.55
23339;BME280;11841;49.368;20.962;2023-01-29T01:20:01;96339.28;;;-1.54;90.72
23339;BME280;11841;49.368;20.962;2023-01-29T01:22:27;96342.72;;;-1.53;90.89
23339;BME280;11841;49.368;20.962;2023-01-29T01:24:54;96342.72;;;-1.53;90.64
23339;BME280;11841;49.368;20.962;2023-01-29T01:27:20;96348.69;;;-1.62;91.47
23339;BME280;11841;49.368;20.962;2023-01-29T01:29:47;96353.88;;;-1.62;91.43
23339;BME280;11841;49.368;20.962;2023-01-29T01:32:14;96357.56;;;-1.65;91.71
23339;BME280;11841;49.368;20.962;2023-01-29T01:34:41;96361.25;;;-1.67;91.95
23339;BME280;11841;49.368;20.962;2023-01-29T01:37:07;96356.47;;;-1.62;91.91
23339;BME280;11841;49.368;20.962;2023-01-29T01:39:34;96355.53;;;-1.61;92.32
23339;BME280;11841;49.368;20.962;2023-01-29T01:42:00;96344.75;;;-1.57;92.24
23339;BME280;11841;49.368;20.962;2023-01-29T01:47:12;96356.16;;;-1.48;92.00
23339;BME280;11841;49.368;20.962;2023-01-29T01:49:40;96357.44;;;-1.43;91.69
23339;BME280;11841;49.368;20.962;2023-01-29T01:52:07;96348.69;;;-1.42;91.41
23339;BME280;11841;49.368;20.962;2023-01-29T01:54:34;96356.22;;;-1.39;91.30
23339;BME280;11841;49.368;20.962;2023-01-29T01:57:12;96351.66;;;-1.46;90.75
23339;BME280;11841;49.368;20.962;2023-01-29T01:59:47;96345.94;;;-1.40;91.15
23339;BME280;11841;49.368;20.962;2023-01-29T02:02:15;96349.25;;;-1.38;90.66
23339;BME280;11841;49.368;20.962;2023-01-29T02:05:01;96362.38;;;-1.40;89.86
23339;BME280;11841;49.368;20.962;2023-01-29T02:07:47;96366.75;;;-1.40;89.11
23339;BME280;11841;49.368;20.962;2023-01-29T02:10:39;96360.16;;;-1.44;88.82
23339;BME280;11841;49.368;20.962;2023-01-29T02:13:06;96366.56;;;-1.48;88.98
23339;BME280;11841;49.368;20.962;2023-01-29T02:15:33;96368.53;;;-1.61;89.02
23339;BME280;11841;49.368;20.962;2023-01-29T02:18:00;96366.41;;;-1.56;89.12
23339;BME280;11841;49.368;20.962;2023-01-29T02:20:27;96357.88;;;-1.58;89.18
23339;BME280;11841;49.368;20.962;2023-01-29T02:35:39;96357.63;;;-1.55;88.02
23339;BME280;11841;49.368;20.962;2023-01-29T02:38:19;96350.53;;;-1.53;87.26
23339;BME280;11841;49.368;20.962;2023-01-29T02:41:03;96352.44;;;-1.55;86.72
23339;BME280;11841;49.368;20.962;2023-01-29T02:48:59;96359.97;;;-1.52;86.72
23339;BME280;11841;49.368;20.962;2023-01-29T02:51:33;96357.75;;;-1.57;87.04
23339;BME280;11841;49.368;20.962;2023-01-29T02:56:47;96357.31;;;-1.62;87.32
23339;BME280;11841;49.368;20.962;2023-01-29T02:59:19;96354.84;;;-1.63;87.69
23339;BME280;11841;49.368;20.962;2023-01-29T03:01:47;96352.75;;;-1.69;88.08
23339;BME280;11841;49.368;20.962;2023-01-29T03:04:21;96348.50;;;-1.70;88.24
23339;BME280;11841;49.368;20.962;2023-01-29T03:06:53;96346.47;;;-1.67;88.70
23339;BME280;11841;49.368;20.962;2023-01-29T03:09:27;96349.66;;;-1.63;89.52
23339;BME280;11841;49.368;20.962;2023-01-29T03:11:57;96329.09;;;-1.66;90.24
23339;BME280;11841;49.368;20.962;2023-01-29T03:14:45;96325.81;;;-1.68;90.79
23339;BME280;11841;49.368;20.962;2023-01-29T03:17:32;96329.47;;;-1.71;91.87
23339;BME280;11841;49.368;20.962;2023-01-29T03:20:02;96321.09;;;-1.74;92.46
23339;BME280;11841;49.368;20.962;2023-01-29T03:22:32;96319.78;;;-1.69;92.52
23339;BME280;11841;49.368;20.962;2023-01-29T03:25:00;96319.66;;;-1.67;92.58
23339;BME280;11841;49.368;20.962;2023-01-29T03:27:47;96319.47;;;-1.75;92.64
23339;BME280;11841;49.368;20.962;2023-01-29T03:30:34;96317.56;;;-1.73;92.44
23339;BME280;11841;49.368;20.962;2023-01-29T03:33:22;96301.44;;;-1.67;92.37
23339;BME280;11841;49.368;20.962;2023-01-29T03:35:54;96310.25;;;-1.59;92.81
23339;BME280;11841;49.368;20.962;2023-01-29T03:38:25;96307.53;;;-1.57;92.41
23339;BME280;11841;49.368;20.962;2023-01-29T03:40:56;96298.53;;;-1.53;91.84
23339;BME280;11841;49.368;20.962;2023-01-29T03:46:05;96313.72;;;-1.49;92.17
23339;BME280;11841;49.368;20.962;2023-01-29T03:48:38;96315.25;;;-1.46;92.14
23339;BME280;11841;49.368;20.962;2023-01-29T04:01:43;96317.22;;;-1.59;92.03
23339;BME280;11841;49.368;20.962;2023-01-29T04:04:14;96320.84;;;-1.51;91.68
23339;BME280;11841;49.368;20.962;2023-01-29T04:06:44;96315.00;;;-1.43;91.36
23339;BME280;11841;49.368;20.962;2023-01-29T04:09:13;96324.56;;;-1.44;91.35
23339;BME280;11841;49.368;20.962;2023-01-29T04:11:45;96314.81;;;-1.51;91.43
23339;BME280;11841;49.368;20.962;2023-01-29T04:14:13;96325.84;;;-1.59;91.88
23339;BME280;11841;49.368;20.962;2023-01-29T04:16:41;96324.84;;;-1.67;92.30
23339;BME280;11841;49.368;20.962;2023-01-29T04:19:09;96321.09;;;-1.74;93.17
23339;BME280;11841;49.368;20.962;2023-01-29T04:21:36;96311.66;;;-1.75;93.60
23339;BME280;11841;49.368;20.962;2023-01-29T04:24:04;96323.00;;;-1.76;93.63
23339;BME280;11841;49.368;20.962;2023-01-29T04:34:49;96315.28;;;-1.87;95.73
23339;BME280;11841;49.368;20.962;2023-01-29T04:39:58;96312.94;;;-1.90;96.35
23339;BME280;11841;49.368;20.962;2023-01-29T04:48:23;96310.41;;;-1.81;96.19
23339;BME280;11841;49.368;20.962;2023-01-29T04:53:23;96303.88;;;-1.75;95.45
23339;BME280;11841;49.368;20.962;2023-01-29T04:55:59;96309.06;;;-1.75;95.15
23339;BME280;11841;49.368;20.962;2023-01-29T05:00:56;96308.94;;;-1.74;94.98
23339;BME280;11841;49.368;20.962;2023-01-29T05:03:23;96307.41;;;-1.76;93.94
23339;BME280;11841;49.368;20.962;2023-01-29T05:05:51;96309.31;;;-1.78;93.46
23339;BME280;11841;49.368;20.962;2023-01-29T05:08:19;96307.78;;;-1.81;93.96
23339;BME280;11841;49.368;20.962;2023-01-29T05:10:47;96307.16;;;-1.73;93.97
23339;BME280;11841;49.368;20.962;2023-01-29T05:13:14;96307.09;;;-1.83;93.19
23339;BME280;11841;49.368;20.962;2023-01-29T05:15:53;96304.63;;;-1.84;93.04
23339;BME280;11841;49.368;20.962;2023-01-29T05:18:21;96306.03;;;-1.80;93.26
23339;BME280;11841;49.368;20.962;2023-01-29T05:20:48;96312.38;;;-1.73;93.01
23339;BME280;11841;49.368;20.962;2023-01-29T05:23:15;96300.75;;;-1.69;92.89
23339;BME280;11841;49.368;20.962;2023-01-29T05:25:42;96311.78;;;-1.77;92.30
23339;BME280;11841;49.368;20.962;2023-01-29T05:28:09;96302.91;;;-1.74;92.14
23339;BME280;11841;49.368;20.962;2023-01-29T05:30:43;96312.59;;;-1.76;92.32
23339;BME280;11841;49.368;20.962;2023-01-29T05:33:17;96307.28;;;-1.75;91.92
23339;BME280;11841;49.368;20.962;2023-01-29T05:35:44;96308.28;;;-1.66;91.50
23339;BME280;11841;49.368;20.962;2023-01-29T05:38:11;96311.72;;;-1.66;91.18
23339;BME280;11841;49.368;20.962;2023-01-29T05:40:37;96303.03;;;-1.76;89.77
23339;BME280;11841;49.368;20.962;2023-01-29T05:43:04;96304.56;;;-1.73;89.77
23339;BME280;11841;49.368;20.962;2023-01-29T05:45:31;96303.91;;;-1.66;90.13
23339;BME280;11841;49.368;20.962;2023-01-29T05:47:58;96308.34;;;-1.57;89.62
23339;BME280;11841;49.368;20.962;2023-01-29T05:50:25;96303.16;;;-1.57;89.22
23339;BME280;11841;49.368;20.962;2023-01-29T05:52:56;96303.72;;;-1.53;89.07
23339;BME280;11841;49.368;20.962;2023-01-29T05:55:23;96305.19;;;-1.60;88.39
23339;BME280;11841;49.368;20.962;2023-01-29T05:57:49;96310.13;;;-1.57;88.53
23339;BME280;11841;49.368;20.962;2023-01-29T06:00:16;96288.13;;;-1.53;88.30
23339;BME280;11841;49.368;20.962;2023-01-29T06:02:43;96278.09;;;-1.58;87.87
23339;BME280;11841;49.368;20.962;2023-01-29T06:05:10;96278.19;;;-1.69;87.55
23339;BME280;11841;49.368;20.962;2023-01-29T06:07:36;96284.22;;;-1.68;88.04
23339;BME280;11841;49.368;20.962;2023-01-29T06:10:08;96280.78;;;-1.69;87.71
23339;BME280;11841;49.368;20.962;2023-01-29T06:12:34;96286.28;;;-1.62;87.87
23339;BME280;11841;49.368;20.962;2023-01-29T06:15:01;96284.25;;;-1.59;87.65
23339;BME280;11841;49.368;20.962;2023-01-29T06:17:27;96290.53;;;-1.61;87.45
23339;BME280;11841;49.368;20.962;2023-01-29T06:19:54;96297.38;;;-1.60;87.23
23339;BME280;11841;49.368;20.962;2023-01-29T06:22:20;96283.84;;;-1.54;87.82
23339;BME280;11841;49.368;20.962;2023-01-29T06:24:47;96289.94;;;-1.44;88.11
23339;BME280;11841;49.368;20.962;2023-01-29T06:27:13;96290.34;;;-1.39;87.87
23339;BME280;11841;49.368;20.962;2023-01-29T06:29:39;96294.75;;;-1.40;87.60
23339;BME280;11841;49.368;20.962;2023-01-29T06:32:06;96295.25;;;-1.46;86.43
23339;BME280;11841;49.368;20.962;2023-01-29T06:34:32;96299.03;;;-1.59;86.25
23339;BME280;11841;49.368;20.962;2023-01-29T06:36:59;96307.97;;;-1.52;86.50
23339;BME280;11841;49.368;20.962;2023-01-29T06:39:25;96307.25;;;-1.54;86.27
23339;BME280;11841;49.368;20.962;2023-01-29T06:41:52;96314.44;;;-1.47;87.09
23339;BME280;11841;49.368;20.962;2023-01-29T06:44:18;96322.06;;;-1.55;86.47
23339;BME280;11841;49.368;20.962;2023-01-29T06:46:45;96316.84;;;-1.55;86.55
23339;BME280;11841;49.368;20.962;2023-01-29T06:49:11;96316.91;;;-1.66;86.22
23339;BME280;11841;49.368;20.962;2023-01-29T06:51:38;96328.91;;;-1.74;85.46
23339;BME280;11841;49.368;20.962;2023-01-29T06:54:04;96327.44;;;-1.67;85.69
23339;BME280;11841;49.368;20.962;2023-01-29T06:56:33;96332.06;;;-1.71;85.40
23339;BME280;11841;49.368;20.962;2023-01-29T06:59:00;96329.88;;;-1.75;85.75
23339;BME280;11841;49.368;20.962;2023-01-29T07:01:26;96336.50;;;-1.82;85.18
23339;BME280;11841;49.368;20.962;2023-01-29T07:04:01;96328.66;;;-1.92;84.82
23339;BME280;11841;49.368;20.962;2023-01-29T07:06:28;96339.16;;;-1.93;84.66
23339;BME280;11841;49.368;20.962;2023-01-29T07:08:55;96339.06;;;-1.92;84.56
23339;BME280;11841;49.368;20.962;2023-01-29T07:11:22;96335.22;;;-1.88;84.21
23339;BME280;11841;49.368;20.962;2023-01-29T07:13:48;96327.00;;;-1.93;83.76
23339;BME280;11841;49.368;20.962;2023-01-29T07:16:15;96333.59;;;-1.89;84.90
23339;BME280;11841;49.368;20.962;2023-01-29T07:18:41;96343.16;;;-1.89;84.28
23339;BME280;11841;49.368;20.962;2023-01-29T07:21:08;96342.91;;;-1.86;84.46
23339;BME280;11841;49.368;20.962;2023-01-29T07:23:34;96340.88;;;-1.83;84.52
23339;BME280;11841;49.368;20.962;2023-01-29T07:26:01;96335.81;;;-1.84;83.64
23339;BME280;11841;49.368;20.962;2023-01-29T07:28:28;96338.59;;;-1.76;84.12
23339;BME280;11841;49.368;20.962;2023-01-29T07:30:56;96337.66;;;-1.75;84.01
23339;BME280;11841;49.368;20.962;2023-01-29T07:33:23;96346.84;;;-1.71;84.19
23339;BME280;11841;49.368;20.962;2023-01-29T07:35:49;96342.91;;;-1.66;83.93
23339;BME280;11841;49.368;20.962;2023-01-29T07:38:16;96330.03;;;-1.67;83.85
23339;BME280;11841;49.368;20.962;2023-01-29T07:40:42;96326.75;;;-1.69;84.04
23339;BME280;11841;49.368;20.962;2023-01-29T07:43:09;96327.19;;;-1.64;83.93
23339;BME280;11841;49.368;20.962;2023-01-29T07:45:36;96333.09;;;-1.62;83.95
23339;BME280;11841;49.368;20.962;2023-01-29T07:48:03;96333.22;;;-1.64;83.93
23339;BME280;11841;49.368;20.962;2023-01-29T07:50:31;96335.94;;;-1.65;83.73
23339;BME280;11841;49.368;20.962;2023-01-29T07:52:57;96337.22;;;-1.60;84.21
23339;BME280;11841;49.368;20.962;2023-01-29T07:55:24;96333.78;;;-1.60;84.15
23339;BME280;11841;49.368;20.962;2023-01-29T07:57:57;96326.03;;;-1.71;83.69
23339;BME280;11841;49.368;20.962;2023-01-29T08:00:24;96327.13;;;-1.74;84.09
23339;BME280;11841;49.368;20.962;2023-01-29T08:02:51;96322.75;;;-1.73;83.63
23339;BME280;11841;49.368;20.962;2023-01-29T08:05:18;96327.09;;;-1.83;83.23
23339;BME280;11841;49.368;20.962;2023-01-29T08:07:44;96326.06;;;-1.92;83.67
23339;BME280;11841;49.368;20.962;2023-01-29T08:10:26;96334.22;;;-1.96;84.03
23339;BME280;11841;49.368;20.962;2023-01-29T08:12:57;96327.19;;;-2.05;84.43
23339;BME280;11841;49.368;20.962;2023-01-29T08:15:23;96325.53;;;-2.06;84.39
23339;BME280;11841;49.368;20.962;2023-01-29T08:17:50;96324.94;;;-2.10;84.59
23339;BME280;11841;49.368;20.962;2023-01-29T08:20:23;96342.44;;;-2.12;84.37
23339;BME280;11841;49.368;20.962;2023-01-29T08:22:56;96339.69;;;-2.10;84.85
23339;BME280;11841;49.368;20.962;2023-01-29T08:25:23;96356.13;;;-2.10;85.29
23339;BME280;11841;49.368;20.962;2023-01-29T08:27:50;96359.09;;;-2.14;85.03
23339;BME280;11841;49.368;20.962;2023-01-29T08:30:17;96368.31;;;-2.21;84.73
23339;BME280;11841;49.368;20.962;2023-01-29T08:32:43;96368.00;;;-2.28;84.89
23339;BME280;11841;49.368;20.962;2023-01-29T08:35:10;96370.97;;;-2.32;85.00
23339;BME280;11841;49.368;20.962;2023-01-29T08:37:36;96377.56;;;-2.28;84.89
23339;BME280;11841;49.368;20.962;2023-01-29T08:40:03;96383.25;;;-2.34;85.24
23339;BME280;11841;49.368;20.962;2023-01-29T08:42:30;96393.97;;;-2.39;85.54
23339;BME280;11841;49.368;20.962;2023-01-29T08:44:56;96395.91;;;-2.41;85.87
23339;BME280;11841;49.368;20.962;2023-01-29T08:47:23;96411.56;;;-2.42;86.34
23339;BME280;11841;49.368;20.962;2023-01-29T08:49:49;96398.50;;;-2.41;86.48
23339;BME280;11841;49.368;20.962;2023-01-29T08:52:15;96408.75;;;-2.39;86.51
23339;BME280;11841;49.368;20.962;2023-01-29T08:54:42;96408.28;;;-2.44;86.97
23339;BME280;11841;49.368;20.962;2023-01-29T08:57:08;96405.31;;;-2.40;87.23
23339;BME280;11841;49.368;20.962;2023-01-29T08:59:35;96416.75;;;-2.31;87.44
23339;BME280;11841;49.368;20.962;2023-01-29T09:02:01;96419.34;;;-2.31;86.82
23339;BME280;11841;49.368;20.962;2023-01-29T09:04:28;96424.06;;;-2.25;86.82
23339;BME280;11841;49.368;20.962;2023-01-29T09:06:54;96428.78;;;-2.30;86.31
23339;BME280;11841;49.368;20.962;2023-01-29T09:09:21;96419.59;;;-2.34;86.34
23339;BME280;11841;49.368;20.962;2023-01-29T09:11:47;96421.50;;;-2.36;86.55
23339;BME280;11841;49.368;20.962;2023-01-29T09:14:14;96429.75;;;-2.31;86.67
23339;BME280;11841;49.368;20.962;2023-01-29T09:16:40;96437.66;;;-2.44;86.16
23339;BME280;11841;49.368;20.962;2023-01-29T09:19:07;96438.03;;;-2.49;86.45
23339;BME280;11841;49.368;20.962;2023-01-29T09:21:33;96447.72;;;-2.51;86.55
23339;BME280;11841;49.368;20.962;2023-01-29T09:24:00;96433.81;;;-2.50;87.14
23339;BME280;11841;49.368;20.962;2023-01-29T09:26:26;96429.06;;;-2.44;86.89
23339;BME280;11841;49.368;20.962;2023-01-29T09:28:53;96416.44;;;-2.49;86.80
23339;BME280;11841;49.368;20.962;2023-01-29T09:31:20;96419.28;;;-2.52;87.03
23339;BME280;11841;49.368;20.962;2023-01-29T09:33:46;96408.19;;;-2.54;86.91
23339;BME280;11841;49.368;20.962;2023-01-29T09:36:13;96415.84;;;-2.53;86.45
23339;BME280;11841;49.368;20.962;2023-01-29T09:38:39;96419.97;;;-2.61;86.78
23339;BME280;11841;49.368;20.962;2023-01-29T09:49:02;96415.25;;;-2.56;87.22
23339;BME280;11841;49.368;20.962;2023-01-29T09:51:30;96416.91;;;-2.66;87.88
23339;BME280;11841;49.368;20.962;2023-01-29T09:56:45;96407.38;;;-2.66;89.04
23339;BME280;11841;49.368;20.962;2023-01-29T09:59:11;96408.09;;;-2.64;88.66
23339;BME280;11841;49.368;20.962;2023-01-29T10:09:37;96375.75;;;-2.71;89.97
23339;BME280;11841;49.368;20.962;2023-01-29T10:14:46;96372.44;;;-2.73;90.68
23339;BME280;11841;49.368;20.962;2023-01-29T10:20:14;96360.41;;;-2.63;90.80
23339;BME280;11841;49.368;20.962;2023-01-29T10:25:12;96355.91;;;-2.50;90.38
23339;BME280;11841;49.368;20.962;2023-01-29T10:27:44;96358.47;;;-2.38;90.06
23339;BME280;11841;49.368;20.962;2023-01-29T10:33:00;96353.31;;;-2.50;89.20
23339;BME280;11841;49.368;20.962;2023-01-29T10:35:30;96356.38;;;-2.44;88.77
23339;BME280;11841;49.368;20.962;2023-01-29T10:38:01;96347.25;;;-2.39;88.58
23339;BME280;11841;49.368;20.962;2023-01-29T10:40:42;96340.03;;;-2.35;86.94
23339;BME280;11841;49.368;20.962;2023-01-29T10:48:47;96340.78;;;-2.44;85.66
23339;BME280;11841;49.368;20.962;2023-01-29T11:01:41;96321.16;;;-2.37;83.47
23339;BME280;11841;49.368;20.962;2023-01-29T11:04:08;96311.06;;;-2.52;81.70
23339;BME280;11841;49.368;20.962;2023-01-29T11:06:36;96331.13;;;-2.54;81.88
23339;BME280;11841;49.368;20.962;2023-01-29T11:17:14;96309.63;;;-2.44;80.32
23339;BME280;11841;49.368;20.962;2023-01-29T11:19:42;96300.38;;;-2.37;80.29
23339;BME280;11841;49.368;20.962;2023-01-29T11:22:15;96289.50;;;-2.31;79.70
23339;BME280;11841;49.368;20.962;2023-01-29T11:24:43;96289.63;;;-2.33;79.30
23339;BME280;11841;49.368;20.962;2023-01-29T11:27:22;96280.19;;;-2.34;77.95
23339;BME280;11841;49.368;20.962;2023-01-29T11:29:51;96275.88;;;-2.44;76.80
23339;BME280;11841;49.368;20.962;2023-01-29T11:32:28;96276.09;;;-2.48;77.04
23339;BME280;11841;49.368;20.962;2023-01-29T11:37:32;96270.72;;;-2.56;76.67
23339;BME280;11841;49.368;20.962;2023-01-29T11:39:59;96261.16;;;-2.55;76.60
23339;BME280;11841;49.368;20.962;2023-01-29T11:42:26;96262.94;;;-2.56;75.48
23339;BME280;11841;49.368;20.962;2023-01-29T11:44:55;96243.81;;;-2.55;76.00
23339;BME280;11841;49.368;20.962;2023-01-29T11:47:25;96247.47;;;-2.57;75.86
23339;BME280;11841;49.368;20.962;2023-01-29T11:49:52;96230.28;;;-2.69;75.21
23339;BME280;11841;49.368;20.962;2023-01-29T11:52:23;96230.28;;;-2.69;75.99
23339;BME280;11841;49.368;20.962;2023-01-29T11:55:01;96222.03;;;-2.63;76.55
23339;BME280;11841;49.368;20.962;2023-01-29T11:57:30;96218.66;;;-2.54;76.42
23339;BME280;11841;49.368;20.962;2023-01-29T11:59:59;96208.28;;;-2.54;76.30
23339;BME280;11841;49.368;20.962;2023-01-29T12:04:57;96190.69;;;-2.51;76.59
23339;BME280;11841;49.368;20.962;2023-01-29T12:07:25;96178.94;;;-2.55;75.75
23339;BME280;11841;49.368;20.962;2023-01-29T12:09:55;96175.56;;;-2.46;76.86
23339;BME280;11841;49.368;20.962;2023-01-29T12:12:26;96168.34;;;-2.42;76.76
23339;BME280;11841;49.368;20.962;2023-01-29T12:17:38;96183.19;;;-2.65;76.50
23339;BME280;11841;49.368;20.962;2023-01-29T12:20:11;96170.66;;;-2.60;76.74
23339;BME280;11841;49.368;20.962;2023-01-29T12:28:18;96176.97;;;-2.41;76.88
23339;BME280;11841;49.368;20.962;2023-01-29T12:30:54;96182.84;;;-2.39;76.56
23339;BME280;11841;49.368;20.962;2023-01-29T12:36:25;96175.72;;;-2.37;76.47
23339;BME280;11841;49.368;20.962;2023-01-29T12:38:53;96181.13;;;-2.50;76.32
23339;BME280;11841;49.368;20.962;2023-01-29T12:41:27;96175.19;;;-2.41;76.85
23339;BME280;11841;49.368;20.962;2023-01-29T12:43:57;96174.69;;;-2.35;76.63
23339;BME280;11841;49.368;20.962;2023-01-29T12:46:26;96181.56;;;-2.45;76.09
23339;BME280;11841;49.368;20.962;2023-01-29T12:48:54;96182.28;;;-2.43;76.79
23339;BME280;11841;49.368;20.962;2023-01-29T12:51:26;96172.47;;;-2.39;76.77
23339;BME280;11841;49.368;20.962;2023-01-29T12:53:58;96164.53;;;-2.38;76.72
23339;BME280;11841;49.368;20.962;2023-01-29T12:56:28;96167.50;;;-2.42;76.94
23339;BME280;11841;49.368;20.962;2023-01-29T12:58:56;96156.63;;;-2.36;76.92
23339;BME280;11841;49.368;20.962;2023-01-29T13:01:30;96139.59;;;-2.29;76.88
23339;BME280;11841;49.368;20.962;2023-01-29T13:04:05;96142.19;;;-2.29;76.34
23339;BME280;11841;49.368;20.962;2023-01-29T13:06:48;96141.66;;;-2.23;77.05
23339;BME280;11841;49.368;20.962;2023-01-29T13:09:16;96154.28;;;-2.19;76.66
23339;BME280;11841;49.368;20.962;2023-01-29T13:11:47;96152.47;;;-2.18;76.89
23339;BME280;11841;49.368;20.962;2023-01-29T13:14:19;96149.97;;;-2.09;77.10
23339;BME280;11841;49.368;20.962;2023-01-29T13:16:48;96145.63;;;-1.99;77.30
23339;BME280;11841;49.368;20.962;2023-01-29T13:21:43;96158.22;;;-1.94;77.29
23339;BME280;11841;49.368;20.962;2023-01-29T13:24:11;96150.03;;;-1.90;77.46
23339;BME280;11841;49.368;20.962;2023-01-29T13:26:38;96156.06;;;-1.89;76.73
23339;BME280;11841;49.368;20.962;2023-01-29T13:29:06;96144.97;;;-1.91;77.28
23339;BME280;11841;49.368;20.962;2023-01-29T13:31:36;96145.53;;;-1.88;77.08
23339;BME280;11841;49.368;20.962;2023-01-29T13:34:11;96146.53;;;-1.79;77.27
23339;BME280;11841;49.368;20.962;2023-01-29T13:36:51;96144.63;;;-1.77;76.94
23339;BME280;11841;49.368;20.962;2023-01-29T13:41:46;96148.69;;;-1.84;76.95
23339;BME280;11841;49.368;20.962;2023-01-29T13:46:55;96150.66;;;-1.77;77.53
23339;BME280;11841;49.368;20.962;2023-01-29T13:49:23;96146.00;;;-1.73;77.12
23339;BME280;11841;49.368;20.962;2023-01-29T13:51:51;96143.84;;;-1.68;76.65
23339;BME280;11841;49.368;20.962;2023-01-29T13:54:19;96144.94;;;-1.61;76.96
23339;BME280;11841;49.368;20.962;2023-01-29T13:56:59;96139.50;;;-1.58;76.84
23339;BME280;11841;49.368;20.962;2023-01-29T14:02:19;96147.72;;;-1.53;77.02
23339;BME280;11841;49.368;20.962;2023-01-29T14:04:46;96154.13;;;-1.48;76.83
23339;BME280;11841;49.368;20.962;2023-01-29T14:10:07;96162.78;;;-1.47;77.65
23339;BME280;11841;49.368;20.962;2023-01-29T14:12:40;96160.03;;;-1.46;76.85
23339;BME280;11841;49.368;20.962;2023-01-29T14:15:17;96162.63;;;-1.46;76.94
23339;BME280;11841;49.368;20.962;2023-01-29T14:17:53;96167.13;;;-1.57;75.97
23339;BME280;11841;49.368;20.962;2023-01-29T14:20:29;96160.53;;;-1.61;76.20
23339;BME280;11841;49.368;20.962;2023-01-29T14:23:18;96170.69;;;-1.58;76.48
23339;BME280;11841;49.368;20.962;2023-01-29T14:25:46;96180.53;;;-1.52;76.73
23339;BME280;11841;49.368;20.962;2023-01-29T14:28:14;96173.88;;;-1.45;77.22
23339;BME280;11841;49.368;20.962;2023-01-29T14:30:44;96169.94;;;-1.40;77.07
23339;BME280;11841;49.368;20.962;2023-01-29T14:33:32;96167.75;;;-1.35;76.80
23339;BME280;11841;49.368;20.962;2023-01-29T14:36:02;96163.38;;;-1.34;76.13
23339;BME280;11841;49.368;20.962;2023-01-29T14:38:30;96167.88;;;-1.36;75.96
23339;BME280;11841;49.368;20.962;2023-01-29T14:41:31;96167.03;;;-1.46;75.48
23339;BME280;11841;49.368;20.962;2023-01-29T14:43:49;96164.16;;;-1.43;76.56
23339;BME280;11841;49.368;20.962;2023-01-29T14:49:01;96148.00;;;-1.37;76.63
23339;BME280;11841;49.368;20.962;2023-01-29T14:51:31;96147.31;;;-1.39;76.67
23339;BME280;11841;49.368;20.962;2023-01-29T14:56:45;96139.50;;;-1.39;77.25
23339;BME280;11841;49.368;20.962;2023-01-29T14:59:19;96135.97;;;-1.38;77.14
23339;BME280;11841;49.368;20.962;2023-01-29T15:01:51;96130.78;;;-1.38;77.74
23339;BME280;11841;49.368;20.962;2023-01-29T15:04:28;96123.25;;;-1.41;77.71
23339;BME280;11841;49.368;20.962;2023-01-29T15:09:37;96143.09;;;-1.40;77.82
23339;BME280;11841;49.368;20.962;2023-01-29T15:17:26;96142.69;;;-1.36;78.05
23339;BME280;11841;49.368;20.962;2023-01-29T15:19:54;96146.66;;;-1.41;78.55
23339;BME280;11841;49.368;20.962;2023-01-29T15:22:22;96149.50;;;-1.44;78.53
23339;BME280;11841;49.368;20.962;2023-01-29T15:25:12;96152.38;;;-1.47;79.13
23339;BME280;11841;49.368;20.962;2023-01-29T15:27:42;96150.47;;;-1.45;78.54
23339;BME280;11841;49.368;20.962;2023-01-29T15:30:13;96148.84;;;-1.46;78.41
23339;BME280;11841;49.368;20.962;2023-01-29T15:32:40;96143.06;;;-1.50;78.66
23339;BME280;11841;49.368;20.962;2023-01-29T15:35:09;96142.50;;;-1.53;78.69
23339;BME280;11841;49.368;20.962;2023-01-29T15:37:36;96143.44;;;-1.54;79.05